createdAt,value
2022-09-21T00:01:20.206Z,3.33
2022-09-21T00:03:47.368Z,2.90
2022-09-21T00:06:16.886Z,4.80
2022-09-21T00:08:43.508Z,3.03
2022-09-21T00:11:17.568Z,2.27
2022-09-21T00:13:46.656Z,2.60
2022-09-21T00:16:14.189Z,2.40
2022-09-21T00:18:40.842Z,2.60
2022-09-21T00:21:08.744Z,3.53
2022-09-21T00:23:36.104Z,2.97
2022-09-21T00:26:13.832Z,2.67
2022-09-21T00:28:40.670Z,3.40
2022-09-21T00:31:12.258Z,2.93
2022-09-21T00:33:39.506Z,2.30
2022-09-21T00:36:07.932Z,4.07
2022-09-21T00:38:34.966Z,3.83
2022-09-21T00:41:01.672Z,2.90
2022-09-21T00:43:28.431Z,2.67
2022-09-21T00:46:00.773Z,2.13
2022-09-21T00:48:28.054Z,2.67
2022-09-21T00:50:55.281Z,4.50
2022-09-21T00:53:22.162Z,3.70
2022-09-21T00:55:51.218Z,3.03
2022-09-21T00:58:20.328Z,2.93
2022-09-21T01:00:46.985Z,3.20
2022-09-21T01:03:13.693Z,4.10
2022-09-21T01:05:40.867Z,3.73
2022-09-21T01:08:07.917Z,4.53
2022-09-21T01:11:08.255Z,4.03
2022-09-21T01:13:40.625Z,3.93
2022-09-21T01:16:17.660Z,3.03
2022-09-21T01:19:07.152Z,3.03
2022-09-21T01:21:34.979Z,3.20
2022-09-21T01:24:22.765Z,3.13
2022-09-21T01:27:08.278Z,2.90
2022-09-21T01:29:40.495Z,3.07
2022-09-21T01:32:13.133Z,2.83
2022-09-21T01:34:54.116Z,3.17
2022-09-21T01:37:25.515Z,3.10
2022-09-21T01:39:59.768Z,3.17
2022-09-21T01:42:26.936Z,3.10
2022-09-21T01:44:53.549Z,3.03
2022-09-21T01:47:20.202Z,3.43
2022-09-21T01:49:49.862Z,2.97
2022-09-21T01:52:34.445Z,3.07
2022-09-21T01:55:04.548Z,2.80
2022-09-21T01:57:47.831Z,4.37
2022-09-21T02:00:15.936Z,3.03
2022-09-21T02:02:54.885Z,3.23
2022-09-21T02:05:22.726Z,2.50
2022-09-21T02:07:50.198Z,3.07
2022-09-21T02:10:39.136Z,5.73
2022-09-21T02:13:07.008Z,3.00
2022-09-21T02:16:08.298Z,5.60
2022-09-21T02:18:59.475Z,3.40
2022-09-21T02:21:45.103Z,4.13
2022-09-21T02:24:47.553Z,3.00
2022-09-21T02:27:19.387Z,3.30
2022-09-21T02:29:57.810Z,2.80
2022-09-21T02:32:38.815Z,3.73
2022-09-21T02:35:09.209Z,2.80
2022-09-21T02:37:40.783Z,3.80
2022-09-21T02:40:36.628Z,3.10
2022-09-21T02:43:08.224Z,3.40
2022-09-21T02:45:45.727Z,3.53
2022-09-21T02:48:29.851Z,3.07
2022-09-21T02:50:58.468Z,2.90
2022-09-21T02:53:27.245Z,3.20
2022-09-21T02:55:56.566Z,7.33
2022-09-21T02:58:24.289Z,3.00
2022-09-21T03:00:51.002Z,3.60
2022-09-21T03:03:20.048Z,2.63
2022-09-21T03:05:48.618Z,3.60
2022-09-21T03:08:16.132Z,2.60
2022-09-21T03:10:42.799Z,3.00
2022-09-21T03:13:09.549Z,3.30
2022-09-21T03:15:39.634Z,4.60
2022-09-21T03:18:09.351Z,4.00
2022-09-21T03:20:36.816Z,2.27
2022-09-21T03:23:03.605Z,5.30
2022-09-21T03:25:30.976Z,2.80
2022-09-21T03:27:58.011Z,2.47
2022-09-21T03:30:25.206Z,2.93
2022-09-21T03:32:52.584Z,5.10
2022-09-21T03:35:20.127Z,2.97
2022-09-21T03:37:46.763Z,2.60
2022-09-21T03:40:13.515Z,2.57
2022-09-21T03:42:43.383Z,2.70
2022-09-21T03:45:10.740Z,2.70
2022-09-21T03:47:38.187Z,3.60
2022-09-21T03:50:10.206Z,4.27
2022-09-21T03:52:38.452Z,2.60
2022-09-21T03:55:06.576Z,2.40
2022-09-21T03:57:34.432Z,3.50
2022-09-21T04:00:03.801Z,2.50
2022-09-21T04:02:30.959Z,3.03
2022-09-21T04:04:57.814Z,2.07
2022-09-21T04:07:24.511Z,3.60
2022-09-21T04:09:51.158Z,5.10
2022-09-21T04:12:21.806Z,3.20
2022-09-21T04:14:49.687Z,3.10
2022-09-21T04:17:16.559Z,3.40
2022-09-21T04:19:45.463Z,2.60
2022-09-21T04:22:15.455Z,3.30
2022-09-21T04:24:42.570Z,2.90
2022-09-21T04:27:09.704Z,5.10
2022-09-21T04:29:36.514Z,4.97
2022-09-21T04:32:03.563Z,4.63
2022-09-21T04:34:31.181Z,8.00
2022-09-21T04:36:58.449Z,5.43
2022-09-21T04:39:25.656Z,4.93
2022-09-21T04:41:52.306Z,6.77
2022-09-21T04:44:19.454Z,7.37
2022-09-21T04:46:46.081Z,4.30
2022-09-21T04:49:12.814Z,6.47
2022-09-21T04:51:39.440Z,5.97
2022-09-21T04:54:06.656Z,6.80
2022-09-21T04:56:34.283Z,4.77
2022-09-21T04:59:00.989Z,4.20
2022-09-21T05:01:27.919Z,4.37
2022-09-21T05:03:54.728Z,3.63
2022-09-21T05:06:21.406Z,5.07
2022-09-21T05:09:06.596Z,5.17
2022-09-21T05:11:33.564Z,4.73
2022-09-21T05:14:00.187Z,7.80
2022-09-21T05:16:26.844Z,7.17
2022-09-21T05:18:55.015Z,5.90
2022-09-21T05:21:21.768Z,9.97
2022-09-21T05:23:48.386Z,5.90
2022-09-21T05:26:15.035Z,6.80
2022-09-21T05:28:41.887Z,9.00
2022-09-21T05:31:18.281Z,10.00
2022-09-21T05:33:52.357Z,8.50
2022-09-21T05:36:39.963Z,8.07
2022-09-21T05:39:07.928Z,8.27
2022-09-21T05:41:35.020Z,9.00
2022-09-21T05:44:01.948Z,7.50
2022-09-21T05:46:35.947Z,5.73
2022-09-21T05:49:05.905Z,6.73
2022-09-21T05:51:51.458Z,5.83
2022-09-21T05:54:41.386Z,4.90
2022-09-21T05:57:19.767Z,5.60
2022-09-21T06:00:01.767Z,3.03
2022-09-21T06:02:40.605Z,2.73
2022-09-21T06:05:11.218Z,3.70
2022-09-21T06:07:37.827Z,3.30
2022-09-21T06:10:04.824Z,3.73
2022-09-21T06:12:31.480Z,3.70
2022-09-21T06:14:58.515Z,4.70
2022-09-21T06:17:27.312Z,4.40
2022-09-21T06:19:54.303Z,3.20
2022-09-21T06:22:21.075Z,3.50
2022-09-21T06:24:47.840Z,4.87
2022-09-21T06:27:14.464Z,3.70
2022-09-21T06:29:41.094Z,3.93
2022-09-21T06:32:07.699Z,3.73
2022-09-21T06:34:34.335Z,4.30
2022-09-21T06:37:00.993Z,4.33
2022-09-21T06:39:27.630Z,3.70
2022-09-21T06:41:54.279Z,4.20
2022-09-21T06:44:21.042Z,4.13
2022-09-21T06:46:47.804Z,4.57
2022-09-21T06:49:14.522Z,4.37
2022-09-21T06:51:41.167Z,4.20
2022-09-21T06:54:08.105Z,4.40
2022-09-21T06:56:35.671Z,3.93
2022-09-21T06:59:02.287Z,5.10
2022-09-21T07:01:29.023Z,4.97
2022-09-21T07:03:55.766Z,3.67
2022-09-21T07:06:22.526Z,3.63
2022-09-21T07:11:41.853Z,6.53
2022-09-21T07:14:08.619Z,5.73
2022-09-21T07:16:36.007Z,4.70
2022-09-21T07:19:10.955Z,6.33
2022-09-21T07:21:38.446Z,7.90
2022-09-21T07:24:10.994Z,7.30
2022-09-21T07:26:38.615Z,6.27
2022-09-21T07:29:05.408Z,5.60
2022-09-21T07:31:32.192Z,5.47
2022-09-21T07:33:59.139Z,6.30
2022-09-21T07:36:25.886Z,5.37
2022-09-21T07:38:53.405Z,5.67
2022-09-21T07:41:20.189Z,5.90
2022-09-21T07:43:47.333Z,5.30
2022-09-21T07:46:14.698Z,5.07
2022-09-21T07:48:41.367Z,5.57
2022-09-21T07:51:09.952Z,4.63
2022-09-21T07:53:37.662Z,5.23
2022-09-21T07:56:05.574Z,5.47
2022-09-21T07:58:50.797Z,6.40
2022-09-21T08:01:17.927Z,4.97
2022-09-21T08:03:44.699Z,6.13
2022-09-21T08:06:11.338Z,4.50
2022-09-21T08:08:38.024Z,5.47
2022-09-21T08:11:05.554Z,4.93
2022-09-21T08:13:32.216Z,4.90
2022-09-21T08:16:00.130Z,4.83
2022-09-21T08:18:27.180Z,4.60
2022-09-21T08:20:57.812Z,4.60
2022-09-21T08:23:24.462Z,5.00
2022-09-21T08:25:51.219Z,4.27
2022-09-21T08:28:18.477Z,4.67
2022-09-21T08:30:45.131Z,4.20
2022-09-21T08:33:11.887Z,4.53
2022-09-21T08:35:38.522Z,4.10
2022-09-21T08:38:05.162Z,5.27
2022-09-21T08:40:32.932Z,6.47
2022-09-21T08:43:02.878Z,3.30
2022-09-21T08:45:35.534Z,3.20
2022-09-21T08:48:04.121Z,4.00
2022-09-21T08:50:41.457Z,3.67
2022-09-21T08:53:19.779Z,3.90
2022-09-21T08:55:46.634Z,3.03
2022-09-21T08:58:29.594Z,3.73
2022-09-21T09:01:25.960Z,3.90
2022-09-21T09:04:03.684Z,3.30
2022-09-21T09:06:32.028Z,2.93
2022-09-21T09:09:10.785Z,3.23
2022-09-21T09:12:24.908Z,2.83
2022-09-21T09:15:33.403Z,1.70
2022-09-21T09:18:18.375Z,2.10
2022-09-21T09:21:05.209Z,4.37
2022-09-21T09:23:35.153Z,1.60
2022-09-21T09:26:11.799Z,1.30
2022-09-21T09:28:42.866Z,1.37
2022-09-21T09:31:22.092Z,2.17
2022-09-21T09:34:09.793Z,1.80
2022-09-21T09:36:57.323Z,1.37
2022-09-21T09:39:23.339Z,1.87
2022-09-21T09:42:13.931Z,1.30
2022-09-21T09:44:50.357Z,2.63
2022-09-21T09:47:30.282Z,1.63
2022-09-21T09:50:25.086Z,1.67
2022-09-21T09:52:54.162Z,1.33
2022-09-21T09:55:25.830Z,1.13
2022-09-21T09:57:53.131Z,1.37
2022-09-21T10:00:20.090Z,2.07
2022-09-21T10:02:59.057Z,1.60
2022-09-21T10:05:31.832Z,1.37
2022-09-21T10:07:58.520Z,1.50
2022-09-21T10:10:40.474Z,1.43
2022-09-21T10:13:11.735Z,2.30
2022-09-21T10:15:51.599Z,1.43
2022-09-21T10:18:27.962Z,1.07
2022-09-21T10:20:58.220Z,1.20
2022-09-21T10:23:24.951Z,2.97
2022-09-21T10:26:05.402Z,2.00
2022-09-21T10:28:32.148Z,1.63
2022-09-21T10:31:10.186Z,1.87
2022-09-21T10:33:48.158Z,2.90
2022-09-21T10:36:26.151Z,2.20
2022-09-21T10:38:53.099Z,2.37
2022-09-21T10:41:19.703Z,1.93
2022-09-21T10:43:46.343Z,2.00
2022-09-21T10:46:13.048Z,2.90
2022-09-21T10:48:39.714Z,1.27
2022-09-21T10:51:06.428Z,2.13
2022-09-21T10:53:36.736Z,1.30
2022-09-21T10:56:15.384Z,1.53
2022-09-21T10:59:13.691Z,1.63
2022-09-21T11:01:45.621Z,1.23
2022-09-21T11:04:22.868Z,1.47
2022-09-21T11:06:52.479Z,1.23
2022-09-21T11:09:28.983Z,0.90
2022-09-21T11:12:26.104Z,1.07
2022-09-21T11:14:55.680Z,1.13
2022-09-21T11:17:33.512Z,1.17
2022-09-21T11:20:33.573Z,1.07
2022-09-21T11:23:10.878Z,0.90
2022-09-21T11:25:46.706Z,0.90
2022-09-21T11:28:33.965Z,0.90
2022-09-21T11:31:00.595Z,0.70
2022-09-21T11:33:51.577Z,0.63
2022-09-21T11:36:41.216Z,1.27
2022-09-21T11:39:21.390Z,0.70
2022-09-21T11:42:06.479Z,1.00
2022-09-21T11:45:00.098Z,1.20
2022-09-21T11:47:46.961Z,0.87
2022-09-21T11:50:46.017Z,0.97
2022-09-21T11:53:28.735Z,0.90
2022-09-21T11:56:16.152Z,0.93
2022-09-21T11:59:21.344Z,1.20
2022-09-21T12:02:06.593Z,0.70
2022-09-21T12:04:36.059Z,0.70
2022-09-21T12:07:41.027Z,0.70
2022-09-21T12:10:20.720Z,0.60
2022-09-21T12:13:08.762Z,0.50
2022-09-21T12:15:42.318Z,0.90
2022-09-21T12:18:25.781Z,3.07
2022-09-21T12:21:30.299Z,0.90
2022-09-21T12:23:59.016Z,0.80
2022-09-21T12:26:28.745Z,0.70
2022-09-21T12:29:01.836Z,0.77
2022-09-21T12:31:53.239Z,0.70
2022-09-21T12:34:41.026Z,0.93
2022-09-21T12:37:08.855Z,0.80
2022-09-21T12:39:39.555Z,0.70
2022-09-21T12:42:22.696Z,0.63
2022-09-21T12:44:55.527Z,0.60
2022-09-21T12:47:53.493Z,0.83
2022-09-21T12:50:31.295Z,1.00
2022-09-21T12:52:57.945Z,1.70
2022-09-21T12:55:41.643Z,0.70
2022-09-21T12:58:26.783Z,0.83
2022-09-21T13:00:59.926Z,2.23
2022-09-21T13:03:37.349Z,0.60
2022-09-21T13:06:12.908Z,1.43
2022-09-21T13:08:41.942Z,0.70
2022-09-21T13:11:08.667Z,2.00
2022-09-21T13:13:35.864Z,1.23
2022-09-21T13:16:04.296Z,0.70
2022-09-21T13:18:36.645Z,0.60
2022-09-21T13:21:20.246Z,0.70
2022-09-21T13:23:55.475Z,0.80
2022-09-21T13:26:42.603Z,0.83
2022-09-21T13:29:21.431Z,1.33
2022-09-21T13:31:58.132Z,0.70
2022-09-21T13:34:39.039Z,1.87
2022-09-21T13:37:11.799Z,1.33
2022-09-21T13:40:03.639Z,1.37
2022-09-21T13:42:30.367Z,1.20
2022-09-21T13:45:15.410Z,3.30
2022-09-21T13:47:47.169Z,0.80
2022-09-21T13:50:28.807Z,1.10
2022-09-21T13:52:58.665Z,1.33
2022-09-21T13:55:32.070Z,1.10
2022-09-21T13:58:05.196Z,1.13
2022-09-21T14:00:36.131Z,0.80
2022-09-21T14:03:05.653Z,0.80
2022-09-21T14:05:39.948Z,0.90
2022-09-21T14:08:23.431Z,0.80
2022-09-21T14:10:54.214Z,1.73
2022-09-21T14:13:36.770Z,0.93
2022-09-21T14:16:29.427Z,1.10
2022-09-21T14:18:56.392Z,0.97
2022-09-21T14:21:23.119Z,1.33
2022-09-21T14:24:19.215Z,1.00
2022-09-21T14:26:47.418Z,3.20
2022-09-21T14:29:37.634Z,1.90
2022-09-21T14:32:04.624Z,2.67
2022-09-21T14:34:36.905Z,1.10
2022-09-21T14:37:07.746Z,1.70
2022-09-21T14:39:37.384Z,1.33
2022-09-21T14:42:29.049Z,1.77
2022-09-21T14:44:57.208Z,1.03
2022-09-21T14:47:51.696Z,1.10
2022-09-21T14:50:30.262Z,1.50
2022-09-21T14:53:18.948Z,1.30
2022-09-21T14:56:22.416Z,3.17
2022-09-21T14:58:52.114Z,1.37
2022-09-21T15:01:31.341Z,1.20
2022-09-21T15:04:24.810Z,1.10
2022-09-21T15:07:34.634Z,1.47
2022-09-21T15:10:55.440Z,1.23
2022-09-21T15:13:47.301Z,1.23
2022-09-21T15:16:21.819Z,1.03
2022-09-21T15:18:51.067Z,1.00
2022-09-21T15:21:21.950Z,0.77
2022-09-21T15:23:52.942Z,1.07
2022-09-21T15:26:26.731Z,5.10
2022-09-21T15:29:09.380Z,0.90
2022-09-21T15:31:40.191Z,1.83
2022-09-21T15:34:07.684Z,1.13
2022-09-21T15:36:37.658Z,1.33
2022-09-21T15:39:04.489Z,1.23
2022-09-21T15:41:41.547Z,1.20
2022-09-21T15:44:15.174Z,2.90
2022-09-21T15:46:43.231Z,2.93
2022-09-21T15:49:15.290Z,1.53
2022-09-21T15:51:45.027Z,2.33
2022-09-21T15:54:32.192Z,1.37
2022-09-21T15:57:08.601Z,1.77
2022-09-21T15:59:35.336Z,1.97
2022-09-21T16:02:11.659Z,1.37
2022-09-21T16:04:39.378Z,1.53
2022-09-21T16:07:07.370Z,1.87
2022-09-21T16:09:42.707Z,0.90
2022-09-21T16:12:33.405Z,1.00
2022-09-21T16:15:04.181Z,1.10
2022-09-21T16:17:36.265Z,2.20
2022-09-21T16:20:23.385Z,0.90
2022-09-21T16:22:53.040Z,0.90
2022-09-21T16:25:37.051Z,1.20
2022-09-21T16:28:15.419Z,1.07
2022-09-21T16:30:51.058Z,0.60
2022-09-21T16:33:37.669Z,0.90
2022-09-21T16:36:06.044Z,1.23
2022-09-21T16:38:33.831Z,1.23
2022-09-21T16:41:01.870Z,1.00
2022-09-21T16:43:28.478Z,1.37
2022-09-21T16:45:55.389Z,1.30
2022-09-21T16:48:22.029Z,1.60
2022-09-21T16:50:53.876Z,1.50
2022-09-21T16:53:21.878Z,1.27
2022-09-21T16:55:48.494Z,1.20
2022-09-21T16:58:15.112Z,1.37
2022-09-21T17:00:42.007Z,1.50
2022-09-21T17:03:08.777Z,3.13
2022-09-21T17:05:35.398Z,1.40
2022-09-21T17:08:02.544Z,1.57
2022-09-21T17:10:31.738Z,1.63
2022-09-21T17:12:59.185Z,2.77
2022-09-21T17:15:26.332Z,1.67
2022-09-21T17:17:52.978Z,1.63
2022-09-21T17:20:23.696Z,1.70
2022-09-21T17:22:50.307Z,1.27
2022-09-21T17:25:16.970Z,2.00
2022-09-21T17:27:45.930Z,2.00
2022-09-21T17:30:13.642Z,1.70
2022-09-21T17:32:42.567Z,2.00
2022-09-21T17:35:36.324Z,2.27
2022-09-21T17:38:03.059Z,1.30
2022-09-21T17:40:30.080Z,1.47
2022-09-21T17:43:10.538Z,1.17
2022-09-21T17:45:57.658Z,1.67
2022-09-21T17:48:24.527Z,1.03
2022-09-21T17:50:51.512Z,2.27
2022-09-21T17:53:36.954Z,1.37
2022-09-21T17:56:31.018Z,1.87
2022-09-21T17:59:04.355Z,1.70
2022-09-21T18:01:39.579Z,3.17
2022-09-21T18:04:06.811Z,1.80
2022-09-21T18:06:36.828Z,1.83
2022-09-21T18:09:04.221Z,1.80
2022-09-21T18:11:30.812Z,1.40
2022-09-21T18:14:09.332Z,4.40
2022-09-21T18:16:51.577Z,2.27
2022-09-21T18:19:42.473Z,2.20
2022-09-21T18:22:26.039Z,1.60
2022-09-21T18:24:52.694Z,1.67
2022-09-21T18:27:20.104Z,2.50
2022-09-21T18:29:46.995Z,1.50
2022-09-21T18:32:26.983Z,2.37
2022-09-21T18:35:14.990Z,1.67
2022-09-21T18:38:10.098Z,1.50
2022-09-21T18:40:48.409Z,1.93
2022-09-21T18:43:36.871Z,2.70
2022-09-21T18:46:14.769Z,1.90
2022-09-21T18:49:09.578Z,3.10
2022-09-21T18:52:01.683Z,2.17
2022-09-21T18:54:28.660Z,4.53
2022-09-21T18:56:56.036Z,3.63
2022-09-21T18:59:23.039Z,3.60
2022-09-21T19:01:50.604Z,2.37
2022-09-21T19:04:18.659Z,2.90
2022-09-21T19:07:01.622Z,3.60
2022-09-21T19:09:48.375Z,4.70
2022-09-21T19:12:49.055Z,2.87
2022-09-21T19:16:01.235Z,3.10
2022-09-21T19:18:49.859Z,3.17
2022-09-21T19:21:31.530Z,3.23
2022-09-21T19:24:25.359Z,3.10
2022-09-21T19:27:08.777Z,2.47
2022-09-21T19:30:03.702Z,13.30
2022-09-21T19:32:43.806Z,19.00
2022-09-21T19:35:13.673Z,20.47
2022-09-21T19:37:40.454Z,22.60
2022-09-21T19:40:07.697Z,18.27
2022-09-21T19:43:27.330Z,10.10
2022-09-21T19:46:24.702Z,8.27
2022-09-21T19:48:53.348Z,7.37
2022-09-21T19:51:38.555Z,7.27
2022-09-21T19:54:31.915Z,7.37
2022-09-21T19:57:17.487Z,7.70
2022-09-21T19:59:44.391Z,5.40
2022-09-21T20:02:15.088Z,4.37
2022-09-21T20:04:48.744Z,4.37
2022-09-21T20:07:25.936Z,5.03
2022-09-21T20:10:04.134Z,3.83
2022-09-21T20:13:15.794Z,4.20
2022-09-21T20:15:47.629Z,4.67
2022-09-21T20:18:20.646Z,3.80
2022-09-21T20:20:47.757Z,3.77
2022-09-21T20:23:14.579Z,3.70
2022-09-21T20:25:54.604Z,3.33
2022-09-21T20:28:22.015Z,2.70
2022-09-21T20:30:48.719Z,3.33
2022-09-21T20:33:17.064Z,2.83
2022-09-21T20:35:44.007Z,3.53
2022-09-21T20:38:10.903Z,3.73
2022-09-21T20:40:38.171Z,2.80
2022-09-21T20:43:04.800Z,3.10
2022-09-21T20:45:33.179Z,2.90
2022-09-21T20:48:15.011Z,3.33
2022-09-21T20:50:46.196Z,2.67
2022-09-21T20:53:12.974Z,3.10
2022-09-21T20:55:40.990Z,2.47
2022-09-21T20:58:10.780Z,2.50
2022-09-21T21:00:38.102Z,3.17
2022-09-21T21:03:05.227Z,3.37
2022-09-21T21:05:32.738Z,3.20
2022-09-21T21:07:59.359Z,3.70
2022-09-21T21:10:26.064Z,3.90
2022-09-21T21:12:52.661Z,3.70
2022-09-21T21:15:19.283Z,3.30
2022-09-21T21:17:47.031Z,7.70
2022-09-21T21:20:13.910Z,3.17
2022-09-21T21:22:40.534Z,3.60
2022-09-21T21:25:07.704Z,3.70
2022-09-21T21:27:35.710Z,3.93
2022-09-21T21:30:02.586Z,2.73
2022-09-21T21:32:32.277Z,3.47
2022-09-21T21:34:59.014Z,2.57
2022-09-21T21:37:26.233Z,3.40
2022-09-21T21:39:53.632Z,3.20
2022-09-21T21:42:20.758Z,3.20
2022-09-21T21:44:48.036Z,3.30
2022-09-21T21:47:38.300Z,3.00
2022-09-21T21:50:01.548Z,3.80
2022-09-21T21:52:28.169Z,3.57
2022-09-21T21:54:54.990Z,3.30
2022-09-21T21:57:21.610Z,3.03
2022-09-21T21:59:48.719Z,2.70
2022-09-21T22:02:15.685Z,3.00
2022-09-21T22:04:42.449Z,2.50
2022-09-21T22:07:09.054Z,3.43
2022-09-21T22:09:35.807Z,3.80
2022-09-21T22:12:03.503Z,3.50
2022-09-21T22:14:30.362Z,3.87
2022-09-21T22:16:59.148Z,3.47
2022-09-21T22:19:26.291Z,4.40
2022-09-21T22:21:54.417Z,3.63
2022-09-21T22:24:21.531Z,4.40
2022-09-21T22:26:48.707Z,4.40
2022-09-21T22:29:15.631Z,3.20
2022-09-21T22:31:44.328Z,4.57
2022-09-21T22:34:12.477Z,3.60
2022-09-21T22:36:39.691Z,4.40
2022-09-21T22:39:07.351Z,3.87
2022-09-21T22:41:41.473Z,4.50
2022-09-21T22:44:08.272Z,6.70
2022-09-21T22:46:34.978Z,4.20
2022-09-21T22:49:01.748Z,6.57
2022-09-21T22:51:28.599Z,5.57
2022-09-21T22:53:55.371Z,4.60
2022-09-21T22:56:23.715Z,5.20
2022-09-21T22:58:52.202Z,5.00
2022-09-21T23:01:21.451Z,3.70
2022-09-21T23:03:49.129Z,4.67
2022-09-21T23:06:17.260Z,4.07
2022-09-21T23:08:48.834Z,4.40
2022-09-21T23:11:18.308Z,4.60
2022-09-21T23:13:45.372Z,5.13
2022-09-21T23:16:12.896Z,4.30
2022-09-21T23:18:40.105Z,4.17
2022-09-21T23:21:08.719Z,4.83
2022-09-21T23:23:35.541Z,3.70
2022-09-21T23:26:07.543Z,4.47
2022-09-21T23:28:34.630Z,6.93
2022-09-21T23:31:02.528Z,4.50
2022-09-21T23:33:39.338Z,5.03
2022-09-21T23:36:07.001Z,5.30
2022-09-21T23:38:33.823Z,5.17
2022-09-21T23:41:12.307Z,5.50
2022-09-21T23:43:39.754Z,5.77
2022-09-21T23:46:06.725Z,6.00
2022-09-21T23:48:33.860Z,6.30
2022-09-21T23:51:00.630Z,6.10
2022-09-21T23:53:28.117Z,5.17
2022-09-21T23:55:55.314Z,4.57
2022-09-21T23:58:22.023Z,4.40
